Time;durP1;ratioP1;P1;durP2;ratioP2;P2;SDS_P1;SDS_P2;PMS_P1;PMS_P2;Temp;Humidity;BMP_temperature;BMP_pressure;BME280_temperature;BME280_humidity;BME280_pressure;Samples;Min_cycle;Max_cycle;Signal;HPM_P1;HPM_P2
2024/01/18 00:02:25;;;;;;;51.75;21.60;;;;;;;-0.36;100.00;99316.59;5267808;28;20024;-73
2024/01/18 00:04:56;;;;;;;53.80;23.15;;;;;;;-0.37;100.00;99328.94;5267925;28;20092;-73
2024/01/18 00:07:27;;;;;;;51.10;22.35;;;;;;;-0.39;100.00;99330.88;5265676;28;20027;-72
2024/01/18 00:09:57;;;;;;;50.25;22.02;;;;;;;-0.40;100.00;99341.53;5265172;28;20077;-72
2024/01/18 00:12:28;;;;;;;53.45;20.90;;;;;;;-0.40;100.00;99341.53;5269003;28;20024;-73
2024/01/18 00:14:58;;;;;;;44.85;20.77;;;;;;;-0.38;100.00;99347.50;5268258;28;20501;-73
2024/01/18 00:17:29;;;;;;;47.33;21.45;;;;;;;-0.30;100.00;99352.97;5267808;28;20020;-73
2024/01/18 00:19:59;;;;;;;54.28;21.55;;;;;;;-0.33;100.00;99355.84;5267047;28;20039;-72
2024/01/18 00:22:30;;;;;;;57.22;21.55;;;;;;;-0.33;100.00;99356.69;5265600;28;20016;-73
2024/01/18 00:25:00;;;;;;;55.38;21.58;;;;;;;-0.36;100.00;99349.03;5268032;28;20031;-73
2024/01/18 00:27:31;;;;;;;48.35;21.40;;;;;;;-0.36;100.00;99345.56;5263385;28;20031;-73
2024/01/18 00:30:01;;;;;;;46.42;22.02;;;;;;;-0.38;100.00;99345.72;5266425;28;20396;-73
2024/01/18 00:32:32;;;;;;;50.60;21.27;;;;;;;-0.37;100.00;99341.28;5267495;28;20139;-73
2024/01/18 00:35:02;;;;;;;52.50;23.17;;;;;;;-0.38;100.00;99350.97;5269551;28;20043;-73
2024/01/18 00:37:33;;;;;;;55.85;22.15;;;;;;;-0.38;100.00;99356.25;5267218;28;20024;-73
2024/01/18 00:40:04;;;;;;;45.70;21.73;;;;;;;-0.38;100.00;99355.41;5266111;28;20057;-73
2024/01/18 00:42:35;;;;;;;43.08;19.65;;;;;;;-0.38;100.00;99360.69;5266796;28;20370;-72
2024/01/18 00:45:06;;;;;;;47.50;21.33;;;;;;;-0.35;100.00;99368.31;5265093;28;20030;-73
2024/01/18 00:47:36;;;;;;;57.75;22.55;;;;;;;-0.35;100.00;99377.06;5266731;28;20038;-73
2024/01/18 00:50:07;;;;;;;44.25;21.95;;;;;;;-0.34;100.00;99372.63;5265859;28;20478;-72
2024/01/18 00:52:37;;;;;;;50.13;21.45;;;;;;;-0.33;100.00;99379.56;5268736;28;20537;-72
2024/01/18 00:55:09;;;;;;;49.90;20.45;;;;;;;-0.30;100.00;99385.41;5266918;28;20020;-72
2024/01/18 00:57:40;;;;;;;57.03;21.05;;;;;;;-0.32;100.00;99389.97;5268758;28;20404;-72
2024/01/18 01:00:11;;;;;;;51.83;21.42;;;;;;;-0.34;100.00;99384.00;5264959;28;20024;-72
2024/01/18 01:02:41;;;;;;;47.05;20.30;;;;;;;-0.36;100.00;99385.09;5269093;28;20032;-72
2024/01/18 01:05:12;;;;;;;49.80;20.67;;;;;;;-0.35;100.00;99392.88;5264928;28;20423;-72
2024/01/18 01:07:42;;;;;;;55.88;21.55;;;;;;;-0.36;100.00;99387.72;5267550;28;20032;-73
2024/01/18 01:10:13;;;;;;;44.17;20.90;;;;;;;-0.42;100.00;99388.25;5268973;28;20068;-72
2024/01/18 01:12:43;;;;;;;51.63;21.02;;;;;;;-0.46;100.00;99390.31;5267484;28;20032;-72
2024/01/18 01:15:14;;;;;;;52.22;21.35;;;;;;;-0.45;100.00;99402.56;5265036;28;20500;-72
2024/01/18 01:17:44;;;;;;;48.75;21.00;;;;;;;-0.42;100.00;99404.91;5267999;28;20440;-72
2024/01/18 01:20:15;;;;;;;51.72;20.58;;;;;;;-0.35;100.00;99403.44;5265261;28;20073;-72
2024/01/18 01:22:45;;;;;;;52.83;20.33;;;;;;;-0.34;100.00;99399.81;5268604;28;20485;-72
2024/01/18 01:25:16;;;;;;;48.75;22.17;;;;;;;-0.37;100.00;99396.59;5265614;28;20024;-72
2024/01/18 01:27:46;;;;;;;48.38;20.67;;;;;;;-0.38;100.00;99406.31;5266373;28;20032;-72
2024/01/18 01:30:16;;;;;;;50.10;20.55;;;;;;;-0.36;100.00;99406.19;5268509;28;20024;-72
2024/01/18 01:32:47;;;;;;;48.22;20.13;;;;;;;-0.34;100.00;99413.00;5268203;28;20103;-72
2024/01/18 01:35:18;;;;;;;48.03;19.90;;;;;;;-0.34;100.00;99406.91;5264671;28;20129;-73
2024/01/18 01:37:48;;;;;;;56.30;20.75;;;;;;;-0.37;100.00;99409.78;5267112;28;20634;-72
2024/01/18 01:40:19;;;;;;;51.55;21.48;;;;;;;-0.41;100.00;99414.47;5266282;28;20485;-72
2024/01/18 01:42:49;;;;;;;46.83;20.98;;;;;;;-0.40;100.00;99421.44;5267282;28;20028;-72
2024/01/18 01:45:20;;;;;;;52.80;21.27;;;;;;;-0.44;100.00;99411.28;5264293;28;20504;-72
2024/01/18 01:47:51;;;;;;;48.38;20.77;;;;;;;-0.47;100.00;99409.72;5266065;28;20051;-72
2024/01/18 01:50:21;;;;;;;70.35;22.70;;;;;;;-0.52;100.00;99404.84;5264780;28;20024;-72
2024/01/18 01:52:52;;;;;;;52.33;21.02;;;;;;;-0.58;100.00;99413.28;5266716;28;20028;-72
2024/01/18 01:55:22;;;;;;;47.97;21.10;;;;;;;-0.57;100.00;99422.03;5267396;28;20465;-72
2024/01/18 01:57:53;;;;;;;45.97;21.17;;;;;;;-0.63;100.00;99414.63;5265112;28;20027;-72
2024/01/18 02:00:24;;;;;;;51.40;20.67;;;;;;;-0.64;100.00;99418.25;5267747;28;20026;-72
2024/01/18 02:02:55;;;;;;;51.20;21.30;;;;;;;-0.66;100.00;99413.09;5273199;28;20020;-72
2024/01/18 02:05:27;;;;;;;53.38;20.58;;;;;;;-0.74;100.00;99417.34;5270849;28;20035;-72
2024/01/18 02:07:57;;;;;;;53.63;21.65;;;;;;;-0.80;100.00;99418.72;5270690;28;20106;-72
2024/01/18 02:10:28;;;;;;;57.40;20.90;;;;;;;-0.83;100.00;99418.94;5272438;28;20111;-72
2024/01/18 02:13:00;;;;;;;46.78;21.00;;;;;;;-0.90;100.00;99426.53;5270823;28;20065;-72
2024/01/18 02:15:31;;;;;;;56.88;21.35;;;;;;;-0.92;100.00;99428.44;5269682;28;20024;-72
2024/01/18 02:18:02;;;;;;;58.25;22.55;;;;;;;-0.92;100.00;99431.06;5271408;28;20099;-72
2024/01/18 02:20:32;;;;;;;53.28;20.67;;;;;;;-0.91;100.00;99422.22;5271513;28;20114;-72
2024/01/18 02:23:05;;;;;;;50.42;21.33;;;;;;;-0.97;100.00;99428.00;5271252;28;20019;-72
2024/01/18 02:25:36;;;;;;;56.25;21.73;;;;;;;-1.00;100.00;99433.53;5270316;28;20024;-72
2024/01/18 02:28:19;;;;;;;57.22;22.27;;;;;;;-0.98;100.00;99434.22;5270213;28;20692;-73
2024/01/18 02:30:50;;;;;;;53.90;22.30;;;;;;;-1.01;100.00;99439.72;5271549;28;20035;-72
2024/01/18 02:33:20;;;;;;;50.05;21.98;;;;;;;-1.01;100.00;99438.91;5269894;28;20444;-73
2024/01/18 02:35:51;;;;;;;49.95;21.08;;;;;;;-1.08;100.00;99443.84;5269922;28;20038;-73
2024/01/18 02:38:22;;;;;;;47.92;21.67;;;;;;;-1.10;100.00;99443.16;5269895;28;20431;-73
2024/01/18 02:40:53;;;;;;;48.65;22.42;;;;;;;-1.12;100.00;99442.41;5271919;28;20020;-73
2024/01/18 02:43:23;;;;;;;52.10;21.00;;;;;;;-1.15;100.00;99430.38;5269802;28;20028;-73
2024/01/18 02:45:53;;;;;;;51.75;22.23;;;;;;;-1.13;100.00;99446.03;5270093;28;20507;-73
2024/01/18 02:48:24;;;;;;;51.63;23.33;;;;;;;-1.13;100.00;99441.59;5264777;28;20427;-73
2024/01/18 02:50:56;;;;;;;54.17;22.13;;;;;;;-1.14;100.00;99433.81;5270487;28;20677;-73
2024/01/18 02:53:27;;;;;;;55.05;23.05;;;;;;;-1.14;100.00;99447.00;5271293;28;20024;-73
2024/01/18 02:55:58;;;;;;;56.03;22.20;;;;;;;-1.15;100.00;99456.69;5264504;28;20027;-72
2024/01/18 02:58:29;;;;;;;59.83;21.13;;;;;;;-1.10;100.00;99462.41;5267416;28;20039;-73
2024/01/18 03:00:59;;;;;;;55.40;21.58;;;;;;;-1.11;100.00;99467.78;5268926;28;20101;-73
2024/01/18 03:03:31;;;;;;;50.92;22.58;;;;;;;-1.22;100.00;99467.81;5270120;28;20028;-73
2024/01/18 03:06:03;;;;;;;58.90;22.85;;;;;;;-1.24;100.00;99467.13;5269044;28;20613;-73
2024/01/18 03:08:36;;;;;;;51.63;22.65;;;;;;;-1.30;100.00;99460.56;5269824;28;20031;-73
2024/01/18 03:11:07;;;;;;;56.00;23.73;;;;;;;-1.31;100.00;99459.72;5270265;28;20106;-73
2024/01/18 03:13:38;;;;;;;55.78;23.08;;;;;;;-1.37;100.00;99457.56;5268777;28;20028;-73
2024/01/18 03:16:09;;;;;;;59.28;23.45;;;;;;;-1.45;100.00;99467.06;5270226;28;20051;-73
2024/01/18 03:18:43;;;;;;;56.20;24.08;;;;;;;-1.50;100.00;99472.69;5270274;28;20027;-73
2024/01/18 03:21:15;;;;;;;56.50;24.08;;;;;;;-1.46;100.00;99489.88;5269191;28;20028;-73
2024/01/18 03:23:45;;;;;;;58.97;24.08;;;;;;;-1.42;100.00;99486.03;5268523;28;20020;-73
2024/01/18 03:26:17;;;;;;;61.90;25.00;;;;;;;-1.50;100.00;99490.28;5267195;28;20031;-73
2024/01/18 03:28:49;;;;;;;57.85;24.90;;;;;;;-1.45;100.00;99488.94;5269009;28;20425;-73
2024/01/18 03:31:22;;;;;;;57.83;22.98;;;;;;;-1.38;100.00;99489.28;5267381;28;20358;-73
2024/01/18 03:33:54;;;;;;;57.28;22.88;;;;;;;-1.39;100.00;99484.97;5269467;28;20028;-73
2024/01/18 03:36:25;;;;;;;53.60;22.10;;;;;;;-1.43;100.00;99483.56;5265259;28;20031;-73
2024/01/18 03:38:55;;;;;;;59.65;23.73;;;;;;;-1.47;100.00;99477.69;5270631;28;20031;-73
2024/01/18 03:41:26;;;;;;;63.00;23.85;;;;;;;-1.43;100.00;99489.66;5268637;28;20045;-73
2024/01/18 03:43:56;;;;;;;54.45;22.52;;;;;;;-1.39;100.00;99496.34;5269517;28;20071;-73
2024/01/18 03:46:27;;;;;;;63.53;25.17;;;;;;;-1.39;100.00;99495.50;5268246;28;20481;-73
2024/01/18 03:48:57;;;;;;;60.22;23.17;;;;;;;-1.41;100.00;99502.66;5268308;28;20032;-73
2024/01/18 03:51:28;;;;;;;50.50;22.92;;;;;;;-1.41;100.00;99503.50;5268193;28;20031;-73
2024/01/18 03:53:58;;;;;;;60.55;23.60;;;;;;;-1.35;100.00;99505.66;5268746;28;20111;-74
2024/01/18 03:56:29;;;;;;;50.90;23.38;;;;;;;-1.45;100.00;99504.72;5266578;28;20154;-73
2024/01/18 03:59:01;;;;;;;55.25;22.40;;;;;;;-1.46;100.00;99510.09;5265284;28;20451;-73
2024/01/18 04:01:32;;;;;;;59.10;24.73;;;;;;;-1.46;100.00;99513.56;5268755;28;20460;-73
2024/01/18 04:04:03;;;;;;;56.63;22.30;;;;;;;-1.50;100.00;99499.00;5256669;28;20028;-73
2024/01/18 04:06:33;;;;;;;56.15;23.83;;;;;;;-1.43;100.00;99518.59;5263628;28;20036;-73
2024/01/18 04:09:06;;;;;;;51.42;22.15;;;;;;;-1.47;100.00;99511.88;5266299;28;20023;-73
2024/01/18 04:11:36;;;;;;;57.22;23.30;;;;;;;-1.52;100.00;99505.31;5266988;28;20099;-73
2024/01/18 04:14:07;;;;;;;56.90;23.30;;;;;;;-1.60;100.00;99498.06;5267974;28;20412;-73
2024/01/18 04:16:38;;;;;;;56.03;23.27;;;;;;;-1.68;100.00;99505.72;5264205;28;20028;-73
2024/01/18 04:19:08;;;;;;;55.35;23.30;;;;;;;-1.76;100.00;99508.09;5260503;28;20555;-73
2024/01/18 04:21:39;;;;;;;53.58;23.77;;;;;;;-1.80;100.00;99520.66;5275479;28;20364;-73
2024/01/18 04:24:10;;;;;;;53.25;22.60;;;;;;;-1.83;100.00;99526.97;5259253;28;20629;-73
2024/01/18 04:26:40;;;;;;;54.97;23.80;;;;;;;-1.87;100.00;99522.91;5263221;28;20465;-73
2024/01/18 04:29:12;;;;;;;53.60;23.92;;;;;;;-1.86;100.00;99536.88;5276786;28;20106;-73
2024/01/18 04:31:43;;;;;;;66.15;26.38;;;;;;;-1.85;100.00;99536.78;5268827;28;20031;-73
2024/01/18 04:34:14;;;;;;;55.58;23.30;;;;;;;-1.85;100.00;99542.06;5277389;28;20046;-73
2024/01/18 04:36:44;;;;;;;57.05;21.88;;;;;;;-1.88;100.00;99538.81;5269122;28;20016;-73
2024/01/18 04:39:15;;;;;;;62.55;24.95;;;;;;;-1.92;100.00;99543.47;5267766;28;20036;-73
2024/01/18 04:41:45;;;;;;;66.63;23.85;;;;;;;-1.92;100.00;99548.72;5276165;28;20027;-73
2024/01/18 04:44:16;;;;;;;65.82;25.58;;;;;;;-1.87;100.00;99545.75;5275332;28;20032;-73
2024/01/18 04:46:46;;;;;;;53.83;23.75;;;;;;;-1.83;100.00;99552.44;5271677;27;20031;-73
2024/01/18 04:49:17;;;;;;;67.28;25.77;;;;;;;-1.77;100.00;99553.75;5264187;28;20042;-73
2024/01/18 04:51:47;;;;;;;68.07;24.55;;;;;;;-1.72;100.00;99562.13;5269099;28;20043;-73
2024/01/18 04:54:18;;;;;;;66.45;24.90;;;;;;;-1.74;100.00;99566.66;5277328;28;20024;-73
2024/01/18 04:56:48;;;;;;;64.72;25.40;;;;;;;-1.87;100.00;99572.03;5280676;28;20116;-72
2024/01/18 04:59:19;;;;;;;64.25;24.73;;;;;;;-1.94;100.00;99571.66;5279709;28;20035;-73
2024/01/18 05:01:49;;;;;;;58.20;23.63;;;;;;;-1.96;100.00;99576.22;5275066;28;20028;-72
2024/01/18 05:04:20;;;;;;;62.20;24.48;;;;;;;-1.94;100.00;99590.06;5262949;28;20032;-73
2024/01/18 05:06:50;;;;;;;59.35;26.27;;;;;;;-1.99;100.00;99579.06;5280771;28;20034;-72
2024/01/18 05:09:21;;;;;;;63.63;24.90;;;;;;;-1.99;100.00;99572.97;5276175;28;20027;-73
2024/01/18 05:11:51;;;;;;;59.38;24.48;;;;;;;-2.00;100.00;99574.78;5271407;28;20434;-72
2024/01/18 05:14:22;;;;;;;61.53;23.95;;;;;;;-2.06;100.00;99582.28;5271802;28;20584;-73
2024/01/18 05:16:54;;;;;;;48.50;23.35;;;;;;;-2.19;100.00;99590.25;5274345;28;20039;-72
2024/01/18 05:19:24;;;;;;;59.05;23.85;;;;;;;-2.36;100.00;99579.25;5281120;28;20020;-73
2024/01/18 05:21:55;;;;;;;54.97;22.02;;;;;;;-2.48;100.00;99585.41;5275232;28;20034;-72
2024/01/18 05:24:25;;;;;;;56.30;20.75;;;;;;;-2.63;100.00;99586.53;5271132;28;20312;-73
2024/01/18 05:26:56;;;;;;;58.40;22.77;;;;;;;-2.78;100.00;99590.28;5271935;28;20029;-72
2024/01/18 05:29:27;;;;;;;70.53;23.65;;;;;;;-2.92;100.00;99583.41;5276010;28;20115;-73
2024/01/18 05:31:57;;;;;;;384.15;31.98;;;;;;;-3.07;100.00;99593.22;5275701;28;20485;-72
2024/01/18 05:34:28;;;;;;;177.00;20.08;;;;;;;-3.28;100.00;99597.38;5274027;28;20377;-73
2024/01/18 05:36:58;;;;;;;235.23;23.60;;;;;;;-3.43;100.00;99604.53;5268454;28;20070;-72
2024/01/18 05:39:29;;;;;;;45.20;19.08;;;;;;;-3.59;100.00;99599.53;5269634;28;20072;-72
2024/01/18 05:42:00;;;;;;;50.90;20.67;;;;;;;-3.68;100.00;99606.25;5268964;28;20043;-73
2024/01/18 05:44:30;;;;;;;49.47;20.20;;;;;;;-3.74;100.00;99616.34;5273531;28;20031;-73
2024/01/18 05:47:02;;;;;;;51.63;20.27;;;;;;;-3.79;100.00;99615.81;5275349;28;20032;-74
2024/01/18 05:49:32;;;;;;;55.05;20.33;;;;;;;-3.77;100.00;99619.16;5271961;28;20073;-73
2024/01/18 05:52:03;;;;;;;41.35;20.55;;;;;;;-3.81;100.00;99617.72;5266211;28;20023;-73
2024/01/18 05:54:33;;;;;;;43.45;19.27;;;;;;;-3.88;100.00;99616.44;5275788;28;20023;-73
2024/01/18 05:57:04;;;;;;;44.70;19.30;;;;;;;-3.99;100.00;99620.63;5273602;28;20019;-73
2024/01/18 05:59:35;;;;;;;51.67;20.40;;;;;;;-4.06;100.00;99629.84;5271903;28;20034;-73
2024/01/18 06:02:05;;;;;;;47.90;20.48;;;;;;;-4.17;100.00;99640.19;5278534;28;20111;-72
2024/01/18 06:04:36;;;;;;;43.55;19.60;;;;;;;-4.17;100.00;99642.81;5275869;28;20536;-73
2024/01/18 06:07:06;;;;;;;45.97;19.40;;;;;;;-4.30;100.00;99639.34;5274136;28;20423;-73
2024/01/18 06:09:37;;;;;;;46.28;17.60;;;;;;;-4.40;100.00;99643.50;5280990;28;20031;-73
2024/01/18 06:12:07;;;;;;;37.55;18.02;;;;;;;-4.57;100.00;99648.06;5278516;28;20019;-73
2024/01/18 06:14:38;;;;;;;41.80;17.60;;;;;;;-4.63;100.00;99650.22;5265474;28;20055;-73
2024/01/18 06:17:08;;;;;;;40.50;16.48;;;;;;;-4.72;100.00;99657.75;5279217;28;20476;-73
2024/01/18 06:19:39;;;;;;;45.42;17.80;;;;;;;-4.79;100.00;99666.06;5275554;28;20634;-73
2024/01/18 06:22:10;;;;;;;46.85;18.67;;;;;;;-4.75;100.00;99662.34;5277442;28;20035;-73
2024/01/18 06:24:40;;;;;;;42.35;18.83;;;;;;;-4.76;100.00;99665.91;5270396;28;20655;-73
2024/01/18 06:27:11;;;;;;;44.83;18.83;;;;;;;-4.75;100.00;99680.66;5270942;27;20046;-73
2024/01/18 06:29:41;;;;;;;42.65;18.10;;;;;;;-4.82;100.00;99681.97;5276955;28;20049;-73
2024/01/18 06:32:11;;;;;;;49.10;17.92;;;;;;;-4.93;100.00;99685.25;5272064;28;20102;-73
2024/01/18 06:34:42;;;;;;;42.83;17.65;;;;;;;-5.02;100.00;99685.81;5273318;28;20052;-73
2024/01/18 06:37:12;;;;;;;41.03;17.73;;;;;;;-5.09;100.00;99689.78;5277621;28;20097;-73
2024/01/18 06:39:43;;;;;;;34.17;13.93;;;;;;;-5.19;100.00;99691.28;5272230;28;20016;-73
2024/01/18 06:42:13;;;;;;;31.00;14.00;;;;;;;-5.31;100.00;99701.56;5271818;28;20027;-73
2024/01/18 06:44:45;;;;;;;28.75;14.52;;;;;;;-5.40;100.00;99693.44;5276218;28;20031;-73
2024/01/18 06:47:16;;;;;;;30.13;14.30;;;;;;;-5.48;100.00;99699.94;5282256;28;20021;-73
2024/01/18 06:49:46;;;;;;;34.08;14.38;;;;;;;-5.54;100.00;99702.09;5279286;28;20039;-73
2024/01/18 06:52:17;;;;;;;33.05;16.02;;;;;;;-5.60;100.00;99705.94;5276057;28;20020;-73
2024/01/18 06:54:47;;;;;;;24.50;12.48;;;;;;;-5.66;100.00;99714.16;5283012;28;20103;-73
2024/01/18 06:57:18;;;;;;;27.42;13.82;;;;;;;-5.68;100.00;99720.38;5274028;27;20023;-73
2024/01/18 06:59:48;;;;;;;28.88;13.38;;;;;;;-5.68;100.00;99726.44;5270338;28;20066;-73
2024/01/18 07:02:22;;;;;;;30.75;13.80;;;;;;;-5.71;100.00;99721.41;5277066;28;20023;-73
2024/01/18 07:04:52;;;;;;;34.05;14.05;;;;;;;-5.78;100.00;99728.75;5281703;28;20035;-73
2024/01/18 07:07:25;;;;;;;35.20;14.95;;;;;;;-5.83;100.00;99730.78;5282016;28;20034;-73
2024/01/18 07:09:56;;;;;;;29.63;12.70;;;;;;;-5.71;100.00;99737.09;5276840;28;20059;-73
2024/01/18 07:12:26;;;;;;;34.00;13.60;;;;;;;-5.75;100.00;99744.25;5265270;28;20035;-73
2024/01/18 07:14:57;;;;;;;38.67;15.27;;;;;;;-5.78;100.00;99746.19;5270137;28;20039;-73
2024/01/18 07:17:27;;;;;;;31.98;14.02;;;;;;;-5.78;100.00;99743.59;5277199;28;20035;-73
2024/01/18 07:19:58;;;;;;;33.20;15.18;;;;;;;-5.73;100.00;99754.59;5277597;27;20030;-73
2024/01/18 07:22:29;;;;;;;34.13;15.20;;;;;;;-5.77;100.00;99750.53;5281403;28;20043;-73
2024/01/18 07:25:00;;;;;;;33.65;14.48;;;;;;;-5.84;100.00;99762.25;5276006;27;20019;-73
2024/01/18 07:27:30;;;;;;;34.50;14.27;;;;;;;-5.86;100.00;99767.56;5271105;28;20047;-73
2024/01/18 07:30:00;;;;;;;28.15;12.95;;;;;;;-5.92;100.00;99774.91;5275838;28;20027;-73
2024/01/18 07:32:33;;;;;;;27.45;11.30;;;;;;;-6.04;100.00;99773.88;5271916;28;20090;-72
2024/01/18 07:35:03;;;;;;;24.30;11.18;;;;;;;-6.32;100.00;99772.00;5270440;28;20378;-73
2024/01/18 07:37:34;;;;;;;29.05;13.55;;;;;;;-6.39;100.00;99775.84;5272364;28;20020;-73
2024/01/18 07:40:06;;;;;;;35.20;14.02;;;;;;;-6.27;100.00;99786.47;5271242;28;20034;-73
2024/01/18 07:42:36;;;;;;;34.65;14.07;;;;;;;-6.18;100.00;99792.06;5268685;28;20023;-73
2024/01/18 07:45:08;;;;;;;41.47;15.00;;;;;;;-6.23;100.00;99794.94;5268649;28;20032;-72
2024/01/18 07:47:40;;;;;;;32.95;13.65;;;;;;;-6.30;100.00;99788.38;5277657;28;20037;-72
2024/01/18 07:50:11;;;;;;;34.13;14.23;;;;;;;-6.38;100.00;99795.78;5269843;28;20032;-72
2024/01/18 07:52:42;;;;;;;34.45;15.07;;;;;;;-6.46;100.00;99803.22;5272707;28;20035;-73
2024/01/18 07:55:12;;;;;;;37.08;15.05;;;;;;;-6.52;100.00;99804.41;5272906;28;20396;-73
2024/01/18 07:57:43;;;;;;;42.05;15.45;;;;;;;-6.52;100.00;99805.25;5277386;28;20038;-73
2024/01/18 08:00:14;;;;;;;42.22;17.67;;;;;;;-6.44;100.00;99817.00;5273814;28;20450;-72
2024/01/18 08:02:44;;;;;;;36.50;15.93;;;;;;;-6.25;100.00;99817.69;5272326;27;20035;-72
2024/01/18 08:05:15;;;;;;;39.08;15.25;;;;;;;-6.15;100.00;99818.88;5272779;28;20036;-73
2024/01/18 08:07:46;;;;;;;35.60;14.50;;;;;;;-6.13;100.00;99824.81;5269237;28;20048;-73
2024/01/18 08:10:16;;;;;;;34.95;14.63;;;;;;;-6.04;100.00;99821.69;5273123;28;20031;-73
2024/01/18 08:12:49;;;;;;;38.60;14.80;;;;;;;-5.89;100.00;99833.03;5269223;28;20056;-73
2024/01/18 08:15:19;;;;;;;34.53;14.07;;;;;;;-5.70;100.00;99835.44;5272360;28;20081;-73
2024/01/18 08:17:50;;;;;;;29.33;14.20;;;;;;;-5.56;100.00;99832.03;5274445;28;20031;-72
2024/01/18 08:20:20;;;;;;;33.55;14.80;;;;;;;-5.52;100.00;99841.38;5273188;28;20180;-73
2024/01/18 08:22:51;;;;;;;35.90;14.57;;;;;;;-5.39;100.00;99851.97;5275259;28;20110;-73
2024/01/18 08:25:22;;;;;;;30.15;12.88;;;;;;;-5.31;100.00;99862.81;5271872;28;20367;-72
2024/01/18 08:27:56;;;;;;;31.33;13.30;;;;;;;-5.23;100.00;99866.66;5272825;28;20420;-72
2024/01/18 08:30:26;;;;;;;32.72;12.48;;;;;;;-4.96;100.00;99865.97;5270240;28;20103;-72
2024/01/18 08:32:57;;;;;;;29.27;12.27;;;;;;;-4.63;100.00;99873.53;5269748;28;20130;-72
2024/01/18 08:35:28;;;;;;;23.10;11.48;;;;;;;-4.28;100.00;99876.59;5269130;28;20035;-73
2024/01/18 08:37:58;;;;;;;24.25;11.80;;;;;;;-3.87;100.00;99882.78;5271207;27;20498;-73
2024/01/18 08:40:29;;;;;;;24.67;11.63;;;;;;;-3.50;100.00;99892.56;5270012;28;20112;-73
2024/01/18 08:43:00;;;;;;;26.08;10.63;;;;;;;-3.03;100.00;99896.44;5271061;28;20031;-73
2024/01/18 08:45:30;;;;;;;25.08;10.80;;;;;;;-2.97;100.00;99906.53;5277889;28;20197;-73
2024/01/18 08:48:01;;;;;;;22.58;11.68;;;;;;;-2.83;100.00;99912.63;5273673;28;20031;-73
2024/01/18 08:50:31;;;;;;;29.02;13.63;;;;;;;-2.72;100.00;99928.50;5278973;28;20028;-73
2024/01/18 08:53:02;;;;;;;41.13;18.08;;;;;;;-2.63;100.00;99923.47;5273577;28;20074;-73
2024/01/18 08:55:32;;;;;;;39.28;16.17;;;;;;;-2.59;100.00;99936.41;5269703;28;20019;-73
2024/01/18 08:58:04;;;;;;;29.38;14.20;;;;;;;-2.63;100.00;99947.09;5274713;28;20027;-73
2024/01/18 09:00:34;;;;;;;34.17;14.75;;;;;;;-2.41;100.00;99949.13;5273921;28;20035;-73
2024/01/18 09:03:05;;;;;;;37.25;15.35;;;;;;;-2.16;100.00;99958.75;5277835;28;20034;-73
2024/01/18 09:05:35;;;;;;;26.05;13.15;;;;;;;-1.86;100.00;99949.63;5273591;28;20063;-73
2024/01/18 09:08:06;;;;;;;26.55;13.45;;;;;;;-1.78;100.00;99957.84;5273876;28;20769;-73
2024/01/18 09:10:36;;;;;;;28.15;13.77;;;;;;;-1.66;100.00;99966.63;5269956;28;20463;-74
2024/01/18 09:13:07;;;;;;;32.85;14.05;;;;;;;-1.48;100.00;99967.09;5273474;28;20034;-74
2024/01/18 09:15:37;;;;;;;25.60;13.50;;;;;;;-1.27;100.00;99980.50;5273604;28;20035;-74
2024/01/18 09:18:08;;;;;;;23.83;12.85;;;;;;;-1.08;100.00;99986.94;5273225;28;20032;-74
2024/01/18 09:20:40;;;;;;;29.20;14.60;;;;;;;-0.93;100.00;99994.66;5270279;28;20036;-74
2024/01/18 09:23:10;;;;;;;28.77;14.07;;;;;;;-0.95;100.00;99992.16;5270077;28;20489;-74
2024/01/18 09:25:42;;;;;;;31.10;15.63;;;;;;;-0.92;100.00;99991.06;5266264;28;20039;-74
2024/01/18 09:28:12;;;;;;;27.95;14.55;;;;;;;-0.81;100.00;100002.47;5274807;28;20027;-74
2024/01/18 09:30:43;;;;;;;26.27;14.35;;;;;;;-0.67;100.00;100014.63;5275079;28;20116;-74
2024/01/18 09:33:15;;;;;;;29.35;16.17;;;;;;;-0.45;100.00;100011.22;5272028;28;20038;-74
2024/01/18 09:35:45;;;;;;;36.72;16.40;;;;;;;-0.26;100.00;100015.91;5271568;28;20028;-74
2024/01/18 09:38:16;;;;;;;39.78;16.58;;;;;;;-0.11;100.00;100022.63;5271957;28;20039;-74
2024/01/18 09:40:46;;;;;;;37.97;18.23;;;;;;;0.07;100.00;100030.09;5278612;28;20528;-74
2024/01/18 09:43:17;;;;;;;35.60;17.98;;;;;;;0.16;100.00;100030.22;5275621;28;20473;-74
2024/01/18 09:45:49;;;;;;;35.17;17.58;;;;;;;0.30;100.00;100025.66;5273922;28;20060;-74
2024/01/18 09:48:19;;;;;;;40.47;20.67;;;;;;;0.58;100.00;100029.59;5275437;28;20542;-75
2024/01/18 09:50:51;;;;;;;43.90;23.13;;;;;;;0.85;100.00;100042.38;5274338;28;20024;-75
2024/01/18 09:53:22;;;;;;;42.83;20.70;;;;;;;1.00;100.00;100049.94;5271908;28;20032;-75
2024/01/18 09:55:53;;;;;;;37.83;19.45;;;;;;;1.13;100.00;100052.38;5273843;28;20016;-75
2024/01/18 09:58:24;;;;;;;36.92;19.20;;;;;;;1.17;100.00;100056.47;5273876;28;20036;-75
2024/01/18 10:00:57;;;;;;;42.28;19.85;;;;;;;1.21;100.00;100059.72;5275589;28;20028;-75
2024/01/18 10:03:28;;;;;;;59.28;22.23;;;;;;;1.27;100.00;100061.84;5269920;28;20028;-75
2024/01/18 10:06:00;;;;;;;41.60;19.75;;;;;;;1.46;100.00;100077.03;5268885;28;20062;-75
2024/01/18 10:08:30;;;;;;;36.65;18.60;;;;;;;1.69;100.00;100086.50;5269070;28;20405;-75
2024/01/18 10:11:01;;;;;;;36.90;17.75;;;;;;;1.76;100.00;100085.06;5268676;28;20031;-75
2024/01/18 10:13:54;;;;;;;39.92;17.55;;;;;;;1.73;100.00;100089.75;5269889;28;20058;-75
2024/01/18 10:16:27;;;;;;;36.40;18.33;;;;;;;1.76;100.00;100094.78;5267108;28;20501;-76
2024/01/18 10:19:00;;;;;;;40.45;19.55;;;;;;;1.89;100.00;100102.53;5271894;28;20049;-75
2024/01/18 10:21:33;;;;;;;38.47;19.60;;;;;;;1.94;100.00;100102.97;5273997;28;20028;-76
2024/01/18 10:24:04;;;;;;;40.45;18.40;;;;;;;2.02;100.00;100105.81;5270909;27;20028;-76
2024/01/18 10:26:34;;;;;;;35.03;18.13;;;;;;;2.03;100.00;100108.34;5278215;28;20028;-76
2024/01/18 10:29:06;;;;;;;37.92;17.98;;;;;;;2.13;100.00;100112.84;5272987;28;20049;-76
2024/01/18 10:31:41;;;;;;;43.53;18.58;;;;;;;2.20;100.00;100116.66;5273867;28;20036;-76
2024/01/18 10:34:11;;;;;;;35.15;18.27;;;;;;;2.28;100.00;100119.50;5271346;28;20022;-76
2024/01/18 10:36:42;;;;;;;36.83;20.65;;;;;;;2.37;100.00;100134.59;5272726;28;20032;-77
2024/01/18 10:39:17;;;;;;;38.47;16.98;;;;;;;2.50;100.00;100135.19;5278768;28;20031;-77
2024/01/18 10:41:47;;;;;;;47.05;18.63;;;;;;;2.69;100.00;100123.84;5271634;28;20027;-77
2024/01/18 10:44:18;;;;;;;30.88;16.75;;;;;;;2.89;100.00;100140.66;5277005;27;20028;-77
2024/01/18 10:46:48;;;;;;;35.08;17.58;;;;;;;3.05;100.00;100141.00;5276490;28;20024;-77
2024/01/18 10:49:19;;;;;;;37.55;17.08;;;;;;;3.23;100.00;100140.34;5273144;28;20020;-77
2024/01/18 10:51:52;;;;;;;37.17;18.50;;;;;;;3.33;100.00;100157.13;5273884;28;20032;-77
2024/01/18 10:54:22;;;;;;;42.20;20.38;;;;;;;3.47;100.00;100145.28;5275706;27;20020;-77
2024/01/18 10:56:53;;;;;;;38.15;17.75;;;;;;;3.63;100.00;100151.72;5270591;28;20031;-77
2024/01/18 10:59:23;;;;;;;30.52;16.33;;;;;;;3.74;100.00;100152.56;5276258;28;20056;-78
2024/01/18 11:01:55;;;;;;;38.60;17.20;;;;;;;3.63;100.00;100159.66;5274957;28;20024;-77
2024/01/18 11:04:28;;;;;;;39.90;17.67;;;;;;;3.62;100.00;100159.81;5270924;28;20393;-78
2024/01/18 11:06:59;;;;;;;39.70;17.40;;;;;;;3.68;100.00;100159.25;5271032;27;20024;-78
2024/01/18 11:09:30;;;;;;;39.70;18.48;;;;;;;3.80;100.00;100173.22;5273123;28;20035;-78
2024/01/18 11:12:03;;;;;;;35.22;16.27;;;;;;;3.83;100.00;100179.09;5274574;28;20046;-78
2024/01/18 11:14:35;;;;;;;34.92;17.70;;;;;;;3.90;100.00;100182.84;5272962;28;20084;-78
2024/01/18 11:17:11;;;;;;;32.25;17.15;;;;;;;3.95;100.00;100185.09;5275223;28;20119;-78
2024/01/18 11:19:44;;;;;;;34.47;17.30;;;;;;;3.92;100.00;100185.38;5275720;28;20012;-78
2024/01/18 11:22:24;;;;;;;35.47;18.50;;;;;;;3.87;100.00;100195.59;5273543;28;20036;-78
2024/01/18 11:25:03;;;;;;;33.80;17.85;;;;;;;3.87;100.00;100193.78;5275592;28;20099;-78
2024/01/18 11:27:39;;;;;;;41.97;18.83;;;;;;;3.96;100.00;100202.69;5272831;28;20039;-78